Time;durP1;ratioP1;P1;durP2;ratioP2;P2;SDS_P1;SDS_P2;PMS_P1;PMS_P2;Temp;Humidity;BMP_temperature;BMP_pressure;BME280_temperature;BME280_humidity;BME280_pressure;Samples;Min_cycle;Max_cycle;Signal;HPM_P1;HPM_P2
2021/07/05 08:14:05;;;;;;;6.28;5.12;;;;;;;39.24;25.35;99616.88;1834776;95;27620;-60
2021/07/05 08:17:07;;;;;;;6.83;5.00;;;;;;;38.80;25.25;99619.19;1824634;96;34166;-61
2021/07/05 08:20:10;;;;;;;4.97;4.53;;;;;;;38.62;24.90;99618.36;1827580;96;30518;-60
2021/07/05 08:23:12;;;;;;;5.83;4.42;;;;;;;38.36;24.55;99624.79;1819799;97;27522;-61
2021/07/05 08:26:15;;;;;;;5.25;4.53;;;;;;;38.14;23.93;99618.84;1805455;98;28951;-60
2021/07/05 08:29:18;;;;;;;5.20;4.58;;;;;;;37.90;24.51;99617.11;1820141;97;31143;-62
2021/07/05 08:32:19;;;;;;;;;;;;;;;37.77;25.17;99618.46;1811589;98;33096;-78
2021/07/05 08:35:22;;;;;;;5.47;4.65;;;;;;;37.76;24.99;99614.52;1815478;98;30542;-75
2021/07/05 08:38:25;;;;;;;4.95;4.55;;;;;;;37.76;25.11;99613.98;1815645;98;27602;-68
2021/07/05 08:41:27;;;;;;;4.92;4.50;;;;;;;37.80;24.73;99615.66;1815522;96;33450;-66
2021/07/05 08:44:29;;;;;;;7.22;4.72;;;;;;;37.77;25.14;99610.08;1811738;96;32675;-71
2021/07/05 08:47:39;;;;;;;6.53;4.25;;;;;;;37.66;24.75;99615.33;1836726;88;33171;-75
2021/07/05 08:50:45;;;;;;;5.25;4.75;;;;;;;37.33;24.67;99622.43;2017720;88;29882;-63
2021/07/05 08:53:49;;;;;;;5.70;4.60;;;;;;;37.12;24.90;99620.63;2020680;86;27815;-60
2021/07/05 08:56:51;;;;;;;5.08;4.30;;;;;;;37.05;25.03;99620.86;2026870;87;28759;-60
2021/07/05 08:59:54;;;;;;;5.28;4.87;;;;;;;36.98;25.01;99614.69;2018104;87;31812;-61
2021/07/05 09:03:00;;;;;;;5.35;3.85;;;;;;;36.90;25.04;99616.83;2053988;86;33903;-61
2021/07/05 09:06:20;;;;;;;5.03;4.00;;;;;;;36.64;25.30;99616.65;2052394;86;29781;-65
2021/07/05 09:09:35;;;;;;;7.53;4.58;;;;;;;36.39;25.41;99611.66;2357690;72;27707;-61
2021/07/05 09:12:37;;;;;;;4.25;3.95;;;;;;;36.12;25.90;99612.50;2313389;75;27593;-66
2021/07/05 09:15:48;;;;;;;6.67;4.50;;;;;;;36.04;26.04;99613.81;2342646;75;30175;-61
2021/07/05 09:18:51;;;;;;;4.40;4.00;;;;;;;35.96;25.69;99609.27;2326100;75;32179;-60
2021/07/05 09:21:55;;;;;;;4.78;4.37;;;;;;;35.86;25.77;99614.13;2311492;77;33534;-61
2021/07/05 09:24:58;;;;;;;4.75;3.90;;;;;;;35.80;25.72;99606.84;2311426;77;29056;-65
2021/07/05 09:28:01;;;;;;;4.90;4.40;;;;;;;35.71;25.83;99603.67;2312916;75;27731;-60
2021/07/05 09:31:03;;;;;;;;;;;;;;;35.66;25.94;99603.03;2313983;77;29151;-60
2021/07/05 09:34:16;;;;;;;4.17;3.87;;;;;;;35.56;25.79;99605.17;2311161;77;32188;-60
2021/07/05 09:37:32;;;;;;;6.72;4.45;;;;;;;35.46;26.03;99601.41;2305125;77;33398;-64
2021/07/05 09:40:35;;;;;;;5.70;5.20;;;;;;;35.27;26.15;99605.87;2271273;78;28707;-58
2021/07/05 09:43:37;;;;;;;4.42;4.03;;;;;;;35.21;26.61;99603.56;2271116;78;27460;-60
2021/07/05 09:46:52;;;;;;;6.08;4.28;;;;;;;35.16;26.03;99609.05;2247491;75;29064;-59
2021/07/05 09:49:57;;;;;;;5.72;4.75;;;;;;;35.06;25.89;99606.95;2310740;77;32238;-58
2021/07/05 09:52:58;;;;;;;5.67;4.28;;;;;;;34.83;25.94;99610.76;2313570;75;33041;-72
2021/07/05 09:56:22;;;;;;;5.03;4.42;;;;;;;34.69;26.60;99617.20;2311081;77;28719;-68
2021/07/05 09:59:25;;;;;;;5.53;5.00;;;;;;;34.61;26.58;99614.86;2287249;77;27602;-62
2021/07/05 10:02:27;;;;;;;6.28;4.95;;;;;;;34.54;26.51;99608.91;2284858;75;32322;-71
2021/07/05 10:05:46;;;;;;;5.15;4.72;;;;;;;34.50;27.05;99611.06;2354277;75;31163;-61
2021/07/05 10:08:48;;;;;;;8.10;5.08;;;;;;;34.45;27.00;99609.04;2357257;75;32351;-58
2021/07/05 10:11:50;;;;;;;4.90;4.40;;;;;;;34.40;27.07;99611.69;2287352;75;29580;-58
2021/07/05 10:15:06;;;;;;;6.95;5.37;;;;;;;34.37;26.69;99617.75;2278289;76;28166;-58
2021/07/05 10:18:08;;;;;;;8.55;5.67;;;;;;;34.21;27.20;99617.48;2271005;78;29059;-59
2021/07/05 10:21:12;;;;;;;5.50;4.97;;;;;;;34.22;27.31;99615.55;2271154;78;30447;-62
2021/07/05 10:24:14;;;;;;;6.72;4.30;;;;;;;34.20;27.78;99614.95;2299001;75;33620;-63
2021/07/05 10:27:17;;;;;;;5.97;5.47;;;;;;;34.28;27.82;99618.70;2309526;77;29052;-62
2021/07/05 10:30:20;;;;;;;5.28;4.78;;;;;;;34.32;27.81;99618.51;2304651;77;27668;-63
2021/07/05 10:33:22;;;;;;;;;;;;;;;34.34;27.72;99619.11;2312184;75;29451;-65
2021/07/05 10:36:27;;;;;;;6.30;5.28;;;;;;;34.43;28.10;99622.35;2314789;75;31226;-71
2021/07/05 10:39:30;;;;;;;6.50;5.17;;;;;;;34.49;27.94;99620.50;2306388;76;32247;-72
2021/07/05 10:42:42;;;;;;;4.75;4.35;;;;;;;34.48;27.63;99625.23;2311728;75;28774;-60
2021/07/05 10:46:00;;;;;;;5.85;5.35;;;;;;;34.45;28.02;99620.70;2305872;77;27762;-71
2021/07/05 10:49:02;;;;;;;6.87;5.10;;;;;;;34.46;28.08;99614.91;2304084;77;29107;-64
2021/07/05 10:52:12;;;;;;;5.40;4.90;;;;;;;34.36;27.64;99627.19;2304644;77;30510;-62
2021/07/05 10:55:43;;;;;;;7.50;4.40;;;;;;;34.09;27.80;99630.03;2304223;77;33894;-67
2021/07/05 10:58:45;;;;;;;4.83;4.42;;;;;;;33.99;28.28;99633.19;2289203;77;29875;-69
2021/07/05 11:01:49;;;;;;;4.17;3.77;;;;;;;33.93;28.20;99621.97;2296266;75;27657;-69
2021/07/05 11:04:51;;;;;;;;;;;;;;;33.91;28.14;99626.92;2321454;76;29495;-73
2021/07/05 11:07:55;;;;;;;4.30;3.90;;;;;;;33.79;27.69;99626.92;2290744;77;32127;-72
2021/07/05 11:11:26;;;;;;;7.25;4.60;;;;;;;33.79;28.04;99624.71;2296972;77;32580;-62
2021/07/05 11:14:34;;;;;;;4.33;3.87;;;;;;;33.75;28.11;99624.37;2308373;77;28808;-70
2021/07/05 11:17:37;;;;;;;5.30;4.47;;;;;;;33.63;27.27;99619.37;2310626;77;27938;-75
2021/07/05 11:20:39;;;;;;;5.75;3.75;;;;;;;33.50;28.14;99621.90;2313162;75;29487;-63
2021/07/05 11:24:08;;;;;;;4.42;4.10;;;;;;;33.51;28.44;99627.73;2280230;77;31009;-64
2021/07/05 11:27:37;;;;;;;5.90;4.87;;;;;;;33.55;28.18;99633.09;2270376;78;33652;-62
2021/07/05 11:30:42;;;;;;;4.12;3.50;;;;;;;33.58;28.57;99635.95;2280288;75;28689;-61
2021/07/05 11:33:45;;;;;;;6.42;5.08;;;;;;;33.59;28.65;99632.91;2312984;77;27622;-63
2021/07/05 11:36:47;;;;;;;5.08;4.33;;;;;;;33.56;28.59;99635.34;2312811;77;28654;-66
2021/07/05 11:39:53;;;;;;;4.78;4.37;;;;;;;33.52;28.88;99632.75;2312667;77;31388;-63
2021/07/05 11:42:58;;;;;;;6.20;4.75;;;;;;;33.46;28.63;99639.58;2308886;77;33849;-65
2021/07/05 11:46:00;;;;;;;5.37;4.70;;;;;;;33.26;28.50;99640.50;2310328;77;29927;-63
2021/07/05 11:49:14;;;;;;;6.28;4.75;;;;;;;33.13;28.74;99642.41;2310463;77;27649;-61
2021/07/05 11:52:17;;;;;;;10.35;4.53;;;;;;;33.02;28.69;99639.94;2299991;75;28657;-65
2021/07/05 11:55:22;;;;;;;5.80;5.10;;;;;;;32.76;28.57;99638.99;2283890;77;32257;-68
2021/07/05 11:58:24;;;;;;;7.33;4.87;;;;;;;32.59;28.80;99641.08;2270170;77;32400;-63
2021/07/05 12:01:29;;;;;;;4.62;4.17;;;;;;;32.44;28.91;99642.91;2285574;75;29079;-64
2021/07/05 12:04:41;;;;;;;;;;;;;;;32.26;29.25;99632.73;2313261;77;27651;-65
2021/07/05 12:07:43;;;;;;;5.35;4.25;;;;;;;32.13;29.56;99637.90;2312723;75;28658;-69
2021/07/05 12:10:47;;;;;;;4.97;4.58;;;;;;;32.04;29.92;99630.45;2318157;76;32257;-69
2021/07/05 12:13:49;;;;;;;7.00;5.33;;;;;;;32.01;29.89;99632.86;2298840;77;33772;-61
2021/07/05 12:16:55;;;;;;;5.28;4.58;;;;;;;31.95;30.71;99636.03;2298320;77;29157;-67
2021/07/05 12:19:58;;;;;;;5.67;5.10;;;;;;;31.91;30.73;99633.41;2339456;76;27962;-62
2021/07/05 12:23:12;;;;;;;5.15;4.65;;;;;;;31.93;31.03;99629.35;2296166;76;29362;-64
2021/07/05 12:26:17;;;;;;;4.83;4.42;;;;;;;32.01;30.96;99637.88;2257372;77;31227;-66
2021/07/05 12:29:26;;;;;;;8.33;4.67;;;;;;;32.10;31.53;99628.69;2315503;76;33847;-69
2021/07/05 12:32:34;;;;;;;8.28;4.40;;;;;;;32.16;31.64;99629.67;2342135;76;28841;-69
2021/07/05 12:35:36;;;;;;;7.70;5.28;;;;;;;32.26;31.52;99632.22;2342332;75;27676;-66
2021/07/05 12:38:38;;;;;;;4.92;4.50;;;;;;;32.37;31.57;99633.30;2339677;75;29013;-69
2021/07/05 12:41:42;;;;;;;6.05;5.15;;;;;;;32.46;31.10;99637.97;2332878;76;32254;-70
2021/07/05 12:44:44;;;;;;;;;;;;;;;32.42;31.08;99634.84;2260251;78;33424;-69
2021/07/05 12:48:02;;;;;;;4.37;3.58;;;;;;;32.55;31.58;99638.47;2215241;77;29958;-67
2021/07/05 12:51:06;;;;;;;4.05;3.75;;;;;;;32.62;31.30;99635.59;2185619;81;27709;-66
2021/07/05 12:54:21;;;;;;;5.25;4.47;;;;;;;32.73;31.20;99638.38;2195503;80;29593;-69
2021/07/05 12:57:23;;;;;;;4.12;3.83;;;;;;;32.80;30.74;99640.22;2223762;80;31950;-65
2021/07/05 13:00:27;;;;;;;6.42;4.53;;;;;;;32.71;30.93;99639.16;2263006;78;33783;-69
2021/07/05 13:03:32;;;;;;;9.48;6.17;;;;;;;32.66;31.02;99640.97;2236388;78;28877;-67
2021/07/05 13:06:41;;;;;;;8.83;4.55;;;;;;;32.54;30.52;99639.03;2224109;79;27667;-62
2021/07/05 13:09:43;;;;;;;5.08;4.35;;;;;;;32.46;30.75;99632.42;2217869;78;28699;-71
2021/07/05 13:13:04;;;;;;;4.97;4.58;;;;;;;32.38;30.33;99638.33;2187997;81;32256;-68
2021/07/05 13:16:25;;;;;;;5.17;3.80;;;;;;;32.32;30.77;99641.51;2183646;80;33051;-67
2021/07/05 13:19:30;;;;;;;5.75;3.95;;;;;;;32.37;30.98;99636.63;2204141;80;27696;-68
2021/07/05 13:22:32;;;;;;;7.37;4.83;;;;;;;32.31;30.82;99645.36;2227351;79;27717;-69
2021/07/05 13:25:35;;;;;;;5.50;4.53;;;;;;;32.31;31.05;99643.11;2261106;78;29521;-70
2021/07/05 13:28:49;;;;;;;4.97;4.58;;;;;;;32.33;30.97;99643.73;2238808;78;31207;-70
2021/07/05 13:31:51;;;;;;;;;;;;;;;32.38;31.12;99645.26;2266280;78;34022;-70
2021/07/05 13:35:05;;;;;;;6.37;4.83;;;;;;;32.23;30.37;99649.28;2262054;78;29155;-71
2021/07/05 13:38:30;;;;;;;5.90;5.30;;;;;;;32.01;30.63;99642.55;2258779;78;28179;-65
2021/07/05 13:41:32;;;;;;;10.18;5.33;;;;;;;31.74;31.23;99645.13;2239491;78;28652;-70
2021/07/05 13:44:36;;;;;;;5.62;5.12;;;;;;;31.58;31.52;99642.44;2261094;78;32195;-61
2021/07/05 13:47:47;;;;;;;;;;;;;;;31.47;31.88;99644.56;2264053;78;32991;-61
2021/07/05 13:50:53;;;;;;;6.53;5.75;;;;;;;31.35;32.19;99655.03;2242462;78;28739;-60
2021/07/05 13:53:55;;;;;;;11.10;5.55;;;;;;;31.25;32.60;99651.09;2222091;80;28214;-60
2021/07/05 13:57:07;;;;;;;10.43;5.58;;;;;;;31.27;32.97;99652.58;2223048;80;29979;-64
2021/07/05 14:00:11;;;;;;;7.00;4.85;;;;;;;31.24;32.92;99644.73;2255275;78;31007;-60
2021/07/05 14:03:17;;;;;;;5.90;5.25;;;;;;;31.25;33.26;99641.41;2238786;78;33816;-60
2021/07/05 14:06:19;;;;;;;6.28;4.62;;;;;;;31.35;33.43;99638.42;2224965;78;28746;-60
2021/07/05 14:09:21;;;;;;;7.83;5.65;;;;;;;31.39;33.82;99636.03;2260814;78;27720;-60
2021/07/05 14:12:23;;;;;;;4.95;4.55;;;;;;;31.43;33.80;99638.66;2261839;78;28651;-70
2021/07/05 14:15:26;;;;;;;7.65;5.55;;;;;;;31.40;33.72;99633.57;2261377;78;32202;-65
2021/07/05 14:18:30;;;;;;;8.20;5.83;;;;;;;31.42;33.72;99630.59;2260845;78;29661;-63
2021/07/05 14:21:32;;;;;;;7.75;5.95;;;;;;;31.43;33.85;99631.73;2261250;78;30225;-74
2021/07/05 14:24:34;;;;;;;8.00;5.40;;;;;;;31.43;33.62;99632.28;2262075;78;27628;-69
2021/07/05 14:27:36;;;;;;;6.67;5.80;;;;;;;31.40;34.07;99632.74;2261735;78;29454;-71
2021/07/05 14:30:40;;;;;;;12.13;6.60;;;;;;;31.36;34.15;99630.95;2261814;78;31705;-70
2021/07/05 14:33:42;;;;;;;9.13;6.13;;;;;;;31.31;34.92;99639.12;2235173;78;33042;-70
2021/07/05 14:36:43;;;;;;;9.33;6.08;;;;;;;31.19;35.46;99637.09;2228735;78;29499;-70
2021/07/05 14:39:46;;;;;;;6.65;6.05;;;;;;;31.17;35.55;99636.50;2260717;78;27728;-72
2021/07/05 14:42:49;;;;;;;7.42;5.97;;;;;;;31.16;35.76;99638.95;2261574;78;29547;-68
2021/07/05 14:45:51;;;;;;;6.40;5.80;;;;;;;31.00;35.55;99644.48;2261707;78;31862;-69
2021/07/05 14:48:53;;;;;;;8.55;6.67;;;;;;;30.81;36.07;99639.98;2261193;78;34223;-71
2021/07/05 14:51:56;;;;;;;8.28;6.08;;;;;;;30.72;36.44;99648.57;2261248;78;30259;-70
2021/07/05 14:54:58;;;;;;;7.60;6.25;;;;;;;30.58;36.56;99642.84;2261692;78;27594;-68
2021/07/05 14:58:01;;;;;;;9.28;7.08;;;;;;;30.41;36.93;99649.41;2261575;78;29483;-66
2021/07/05 15:01:03;;;;;;;8.78;7.08;;;;;;;30.22;37.02;99647.92;2261164;78;31913;-64
2021/07/05 15:04:06;;;;;;;8.10;6.15;;;;;;;30.05;37.32;99645.36;2241736;78;34208;-68
2021/07/05 15:07:08;;;;;;;8.40;6.78;;;;;;;29.84;37.67;99641.30;2259747;78;30241;-72
2021/07/05 15:10:12;;;;;;;9.48;7.08;;;;;;;29.70;37.84;99657.61;2252628;78;27730;-72
2021/07/05 15:13:14;;;;;;;;;;;;;;;29.62;38.16;99653.18;2233361;78;28814;-72
2021/07/05 15:16:16;;;;;;;8.38;6.50;;;;;;;29.61;38.52;99655.63;2265911;78;31350;-72
2021/07/05 15:19:20;;;;;;;7.03;5.87;;;;;;;29.50;38.42;99657.14;2266229;78;34070;-72
2021/07/05 15:22:22;;;;;;;;;;;;;;;29.40;38.74;99658.97;2269236;78;29092;-59
2021/07/05 15:25:24;;;;;;;7.70;6.17;;;;;;;29.28;39.05;99663.43;2264099;78;27690;-59
2021/07/05 15:28:26;;;;;;;9.00;5.87;;;;;;;29.13;39.33;99664.20;2263945;78;28141;-59
2021/07/05 15:31:28;;;;;;;7.05;6.05;;;;;;;28.99;39.49;99666.97;2263915;78;31818;-59
2021/07/05 15:34:31;;;;;;;10.20;6.70;;;;;;;28.87;39.80;99669.52;2263198;78;33954;-59
2021/07/05 15:37:34;;;;;;;8.65;6.17;;;;;;;28.83;40.09;99670.16;2263369;78;30207;-63
2021/07/05 15:40:36;;;;;;;8.70;6.58;;;;;;;28.66;40.03;99663.11;2263931;78;27667;-59
2021/07/05 15:43:42;;;;;;;9.80;7.30;;;;;;;28.54;40.44;99670.31;2264366;78;28644;-69
2021/07/05 15:46:45;;;;;;;8.38;6.70;;;;;;;28.50;40.58;99664.89;2265805;78;31087;-69
2021/07/05 15:49:46;;;;;;;9.23;6.75;;;;;;;28.45;40.60;99666.91;2266073;78;33797;-68
2021/07/05 15:52:49;;;;;;;9.48;7.17;;;;;;;28.34;40.18;99668.37;2266179;78;29939;-60
2021/07/05 15:55:52;;;;;;;9.78;7.03;;;;;;;28.28;40.28;99671.98;2266346;78;27660;-59
2021/07/05 15:58:54;;;;;;;10.23;8.13;;;;;;;28.25;40.58;99678.41;2266295;78;28674;-59
2021/07/05 16:01:56;;;;;;;8.38;6.97;;;;;;;28.18;40.87;99677.02;2266189;78;31061;-62
2021/07/05 16:04:58;;;;;;;14.90;6.90;;;;;;;28.15;41.17;99684.31;2264437;78;33524;-62
2021/07/05 16:08:01;;;;;;;7.95;7.25;;;;;;;28.17;41.64;99687.20;2263653;78;30252;-61
2021/07/05 16:11:03;;;;;;;8.08;6.87;;;;;;;28.20;41.55;99690.92;2263807;78;27734;-59
2021/07/05 16:14:06;;;;;;;9.05;6.85;;;;;;;28.28;42.03;99684.88;2263885;78;28654;-59
2021/07/05 16:17:07;;;;;;;10.50;6.42;;;;;;;28.40;42.35;99703.04;2263613;78;31378;-59
2021/07/05 16:20:10;;;;;;;10.68;7.35;;;;;;;28.43;42.42;99706.22;2263480;78;34157;-70
2021/07/05 16:23:13;;;;;;;9.60;6.65;;;;;;;28.39;42.50;99693.08;2265123;78;29385;-58
2021/07/05 16:26:15;;;;;;;6.78;6.08;;;;;;;28.38;42.47;99701.02;2264714;78;27757;-60
2021/07/05 16:29:17;;;;;;;8.38;6.67;;;;;;;28.31;42.59;99700.45;2261024;77;28574;-59
2021/07/05 16:32:19;;;;;;;7.60;6.90;;;;;;;28.26;42.57;99709.03;2252328;78;31821;-61
2021/07/05 16:35:22;;;;;;;6.97;6.28;;;;;;;28.13;42.71;99717.58;2244772;78;33086;-57
2021/07/05 16:38:26;;;;;;;7.58;6.60;;;;;;;27.99;42.83;99714.41;2260971;78;29721;-62
2021/07/05 16:41:28;;;;;;;10.95;7.33;;;;;;;27.80;42.85;99716.87;2257448;78;27731;-57
2021/07/05 16:44:30;;;;;;;7.42;6.42;;;;;;;27.63;43.21;99719.63;2248292;77;30066;-60
2021/07/05 16:47:37;;;;;;;6.90;5.90;;;;;;;27.46;43.22;99722.70;2247259;78;31362;-59
2021/07/05 16:50:48;;;;;;;13.00;7.55;;;;;;;27.34;43.57;99723.75;2245647;78;33028;-61
2021/07/05 16:53:43;;;;;;;8.13;5.95;;;;;;;27.17;43.59;99725.09;2257424;78;29061;-59
2021/07/05 16:56:44;;;;;;;;;;;;;;;27.01;43.97;99727.63;2246307;78;28301;-57
2021/07/05 16:59:49;;;;;;;8.55;6.85;;;;;;;26.81;44.22;99723.62;2242098;78;29008;-71
2021/07/05 17:02:59;;;;;;;7.85;7.12;;;;;;;26.62;44.28;99727.86;2258672;78;32083;-58
2021/07/05 17:06:02;;;;;;;7.92;7.12;;;;;;;26.46;44.62;99730.34;2254918;78;32974;-57
2021/07/05 17:09:04;;;;;;;7.10;6.25;;;;;;;26.31;44.80;99727.64;2258254;78;29017;-57
2021/07/05 17:12:07;;;;;;;6.10;5.47;;;;;;;26.19;45.16;99727.28;2234702;77;27653;-62
2021/07/05 17:15:11;;;;;;;6.35;5.85;;;;;;;26.05;45.29;99734.99;2263275;77;29557;-59
2021/07/05 17:18:14;;;;;;;6.28;5.67;;;;;;;25.95;45.45;99733.91;2266026;77;30987;-62
2021/07/05 17:21:16;;;;;;;6.90;5.85;;;;;;;25.84;45.56;99739.36;2251550;77;33787;-58
2021/07/05 17:24:18;;;;;;;9.05;6.05;;;;;;;25.73;45.64;99745.33;2257271;77;29824;-59
2021/07/05 17:27:20;;;;;;;8.60;6.05;;;;;;;25.61;45.83;99740.83;2264267;77;27701;-59
2021/07/05 17:30:23;;;;;;;6.37;5.87;;;;;;;25.51;46.13;99734.25;2251898;77;29894;-60
2021/07/05 17:33:25;;;;;;;6.60;5.90;;;;;;;25.41;46.20;99739.14;2260145;77;31012;-59
2021/07/05 17:36:29;;;;;;;7.28;5.83;;;;;;;25.33;46.22;99746.92;2258692;77;34218;-61
2021/07/05 17:39:31;;;;;;;7.92;6.92;;;;;;;25.19;46.38;99749.96;2263694;77;34776;-59
2021/07/05 17:42:34;;;;;;;7.75;6.08;;;;;;;25.09;46.58;99753.48;2257666;77;27670;-58
2021/07/05 17:45:46;;;;;;;5.55;4.92;;;;;;;24.99;46.50;99756.48;2257097;77;28675;-59
2021/07/05 17:49:00;;;;;;;6.00;5.40;;;;;;;24.87;46.73;99758.30;2253775;77;31395;-60
2021/07/05 17:52:09;;;;;;;7.37;5.60;;;;;;;24.78;46.84;99756.64;2251279;77;33036;-69
2021/07/05 17:55:30;;;;;;;7.70;5.65;;;;;;;24.69;47.08;99761.29;2233209;78;28975;-68
2021/07/05 17:58:44;;;;;;;7.12;5.95;;;;;;;24.60;47.22;99756.05;2216866;78;27691;-69
2021/07/05 18:01:46;;;;;;;6.87;5.75;;;;;;;24.50;47.47;99762.63;2253947;78;28670;-70
2021/07/05 18:04:48;;;;;;;6.12;5.47;;;;;;;24.42;47.76;99760.78;2253419;78;30984;-69
2021/07/05 18:07:53;;;;;;;6.55;5.12;;;;;;;24.33;47.82;99765.95;2261657;78;32989;-69
2021/07/05 18:10:57;;;;;;;;;;;;;;;24.24;48.18;99767.88;2255922;77;30018;-60
2021/07/05 18:13:59;;;;;;;9.18;6.37;;;;;;;24.15;48.58;99764.02;2250835;78;27651;-66
2021/07/05 18:17:01;;;;;;;7.92;5.75;;;;;;;24.03;48.69;99767.13;2248325;77;30801;-66
2021/07/05 18:20:06;;;;;;;5.90;5.30;;;;;;;23.94;48.96;99761.33;2251610;77;32334;-62
2021/07/05 18:23:08;;;;;;;7.22;6.53;;;;;;;23.85;49.22;99767.34;2259075;77;33073;-68
2021/07/05 18:26:11;;;;;;;8.93;6.50;;;;;;;23.76;49.71;99774.72;2246860;77;30215;-67
2021/07/05 18:29:13;;;;;;;10.60;8.35;;;;;;;23.66;49.74;99773.55;2255566;78;27600;-71
2021/07/05 18:32:15;;;;;;;7.40;6.55;;;;;;;23.56;49.87;99767.44;2253033;78;28100;-62
2021/07/05 18:35:19;;;;;;;7.10;6.40;;;;;;;23.48;50.21;99769.67;2232184;78;31427;-70
2021/07/05 18:38:22;;;;;;;;;;;;;;;23.39;50.48;99773.95;2243493;78;34013;-73
2021/07/05 18:41:27;;;;;;;9.15;6.65;;;;;;;23.30;50.63;99775.84;2218060;79;29414;-66
2021/07/05 18:44:32;;;;;;;7.62;6.62;;;;;;;23.19;50.83;99774.28;2254073;77;27815;-72
2021/07/05 18:47:36;;;;;;;10.90;7.15;;;;;;;23.09;51.18;99784.02;2252022;77;29659;-71
2021/07/05 18:50:38;;;;;;;6.85;5.80;;;;;;;23.01;51.57;99783.50;2249258;77;31097;-66
2021/07/05 18:53:42;;;;;;;9.08;6.65;;;;;;;22.92;51.76;99791.33;2255571;77;33764;-62
2021/07/05 18:56:44;;;;;;;8.63;7.30;;;;;;;22.83;52.03;99796.45;2253192;77;29667;-66
2021/07/05 18:59:49;;;;;;;7.78;6.37;;;;;;;22.72;52.12;99792.17;2250281;77;27672;-70
2021/07/05 19:02:51;;;;;;;7.08;6.35;;;;;;;22.62;52.56;99796.41;2128737;81;29538;-60
2021/07/05 19:05:53;;;;;;;7.10;6.40;;;;;;;22.50;52.72;99785.47;2178613;81;32170;-66
2021/07/05 19:08:55;;;;;;;8.95;7.17;;;;;;;22.39;52.88;99797.02;2179234;81;34246;-72
2021/07/05 19:11:58;;;;;;;7.80;6.97;;;;;;;22.28;53.15;99804.13;2179484;81;29147;-79
2021/07/05 19:15:05;;;;;;;9.98;7.55;;;;;;;22.16;53.28;99800.34;2143948;81;27828;-72
2021/07/05 19:18:07;;;;;;;9.20;7.65;;;;;;;22.06;53.68;99813.75;2124654;83;28673;-65
2021/07/05 19:21:09;;;;;;;11.83;8.08;;;;;;;21.95;53.69;99811.67;2142134;83;32302;-74
2021/07/05 19:24:11;;;;;;;9.13;7.92;;;;;;;21.83;54.06;99816.54;2141165;83;34203;-75
2021/07/05 19:27:13;;;;;;;7.33;6.62;;;;;;;21.74;54.20;99828.43;2101548;84;28582;-62
2021/07/05 19:30:20;;;;;;;11.33;7.05;;;;;;;21.62;54.50;99829.69;2139099;83;27826;-74
2021/07/05 19:33:22;;;;;;;9.60;7.72;;;;;;;21.51;54.65;99837.09;2109329;83;28650;-68
2021/07/05 19:36:25;;;;;;;8.65;7.55;;;;;;;21.43;55.16;99830.72;2101666;84;33131;-61
2021/07/05 19:39:27;;;;;;;9.05;7.67;;;;;;;21.32;55.04;99838.14;2140519;83;33722;-70
2021/07/05 19:42:29;;;;;;;12.05;7.05;;;;;;;21.22;55.65;99842.80;2102626;84;29986;-62
2021/07/05 19:45:32;;;;;;;8.40;6.53;;;;;;;21.12;55.71;99846.97;2140348;83;27759;-71
2021/07/05 19:48:34;;;;;;;11.85;7.08;;;;;;;21.05;55.82;99852.19;2102606;84;29433;-69
2021/07/05 19:51:36;;;;;;;7.75;6.92;;;;;;;20.99;55.95;99850.59;2103124;84;31930;-64
2021/07/05 19:54:38;;;;;;;9.40;6.83;;;;;;;20.92;56.51;99861.25;2141307;83;34305;-67
2021/07/05 19:57:41;;;;;;;8.78;7.45;;;;;;;20.87;56.62;99865.81;2104333;84;29746;-59
2021/07/05 20:00:43;;;;;;;13.68;9.13;;;;;;;20.82;56.92;99875.45;2142526;83;27781;-67
2021/07/05 20:03:46;;;;;;;9.33;8.38;;;;;;;20.75;57.04;99880.14;2104226;84;29870;-72
2021/07/05 20:06:49;;;;;;;11.90;9.43;;;;;;;20.70;57.24;99876.97;2208361;80;31011;-65
2021/07/05 20:09:51;;;;;;;11.20;8.65;;;;;;;20.63;57.55;99883.53;2263774;78;33028;-72
2021/07/05 20:12:53;;;;;;;12.82;8.73;;;;;;;20.57;57.54;99887.37;2264837;77;29064;-60
2021/07/05 20:15:55;;;;;;;13.65;9.83;;;;;;;20.49;57.83;99883.55;2265660;78;28049;-62
2021/07/05 20:18:57;;;;;;;12.53;10.28;;;;;;;20.43;58.01;99893.67;2234266;78;29456;-69
2021/07/05 20:21:59;;;;;;;11.83;8.93;;;;;;;20.37;58.40;99902.94;2256756;78;33090;-68
2021/07/05 20:25:05;;;;;;;11.65;10.15;;;;;;;20.30;58.48;99907.61;2224419;79;34144;-62
2021/07/05 20:28:07;;;;;;;13.88;9.23;;;;;;;20.26;58.70;99904.86;2234271;77;28927;-68
2021/07/05 20:31:10;;;;;;;15.65;11.22;;;;;;;20.24;58.84;99909.58;2241083;78;27676;-69
2021/07/05 20:34:12;;;;;;;15.23;11.30;;;;;;;20.21;59.27;99912.59;2236221;77;29436;-77
2021/07/05 20:37:15;;;;;;;16.87;11.30;;;;;;;20.19;59.38;99908.64;2264595;78;32214;-60
2021/07/05 20:40:17;;;;;;;12.82;9.70;;;;;;;20.18;59.56;99918.33;2301397;77;33833;-67
2021/07/05 20:43:19;;;;;;;27.07;11.45;;;;;;;20.14;59.63;99915.05;2306804;77;30203;-59
2021/07/05 20:46:23;;;;;;;17.15;11.20;;;;;;;20.12;59.83;99917.55;2306936;76;27814;-65
2021/07/05 20:49:25;;;;;;;13.65;10.60;;;;;;;20.09;60.08;99920.07;2307043;77;29499;-61
2021/07/05 20:52:27;;;;;;;14.10;10.18;;;;;;;20.04;59.96;99918.28;2304124;76;32198;-70
2021/07/05 20:55:30;;;;;;;13.72;10.05;;;;;;;19.99;60.14;99917.89;2307042;77;33896;-73
2021/07/05 20:58:33;;;;;;;12.58;10.43;;;;;;;19.92;60.17;99921.70;2306460;77;29203;-71
2021/07/05 21:01:36;;;;;;;24.67;22.07;;;;;;;19.86;60.36;99927.16;2300329;77;27618;-65
2021/07/05 21:04:38;;;;;;;15.30;13.15;;;;;;;19.80;60.40;99926.89;2234838;77;28667;-66
2021/07/05 21:07:40;;;;;;;15.20;10.00;;;;;;;19.73;60.86;99930.69;2264871;78;32107;-58
2021/07/05 21:10:43;;;;;;;13.28;8.75;;;;;;;19.68;60.91;99933.01;2265423;77;33642;-75
2021/07/05 21:13:45;;;;;;;15.18;9.10;;;;;;;19.65;61.06;99938.20;2265622;78;29214;-61
2021/07/05 21:16:48;;;;;;;14.75;9.10;;;;;;;19.61;61.39;99934.05;2265345;78;28118;-60
2021/07/05 21:19:50;;;;;;;10.18;8.85;;;;;;;19.60;61.75;99935.09;2267947;77;29558;-68
2021/07/05 21:22:53;;;;;;;12.63;9.05;;;;;;;19.59;61.71;99937.45;2266173;78;32273;-78
2021/07/05 21:25:55;;;;;;;13.28;8.78;;;;;;;19.57;61.93;99931.30;2266837;78;33119;-61
2021/07/05 21:28:57;;;;;;;11.50;8.98;;;;;;;19.54;61.94;99938.37;2274679;77;29704;-77
2021/07/05 21:31:59;;;;;;;10.70;8.58;;;;;;;19.51;62.08;99935.45;2271052;77;27902;-76
2021/07/05 21:35:01;;;;;;;11.57;10.05;;;;;;;19.48;62.26;99936.21;2261043;78;29289;-76
2021/07/05 21:38:03;;;;;;;11.15;8.58;;;;;;;19.42;62.17;99929.02;2265470;78;32221;-78
2021/07/05 21:41:05;;;;;;;13.93;8.68;;;;;;;19.37;62.53;99937.20;2265087;78;34357;-77
2021/07/05 21:44:07;;;;;;;10.53;8.43;;;;;;;19.33;62.68;99936.64;2265096;78;30359;-73
2021/07/05 21:47:09;;;;;;;14.73;9.58;;;;;;;19.31;62.69;99944.07;2265615;78;28020;-75
2021/07/05 21:50:12;;;;;;;11.33;8.63;;;;;;;19.30;62.85;99938.80;2260543;78;28650;-76
2021/07/05 21:53:14;;;;;;;10.40;9.28;;;;;;;19.31;63.20;99945.95;2260691;78;30463;-77
2021/07/05 21:56:16;;;;;;;12.37;9.35;;;;;;;19.31;63.28;99940.00;2260419;78;33948;-69
2021/07/05 21:59:20;;;;;;;10.85;9.60;;;;;;;19.33;63.36;99939.36;2260448;78;29888;-67
2021/07/05 22:02:24;;;;;;;11.00;8.87;;;;;;;19.34;63.53;99935.64;2260947;78;27696;-66
2021/07/05 22:05:27;;;;;;;11.60;8.75;;;;;;;19.33;63.58;99946.15;2259822;78;29545;-74
2021/07/05 22:08:30;;;;;;;11.03;7.83;;;;;;;19.34;63.74;99938.88;2225159;79;31024;-75
2021/07/05 22:11:32;;;;;;;12.00;8.05;;;;;;;19.35;63.79;99935.16;2246702;77;34291;-72
2021/07/05 22:14:34;;;;;;;10.13;7.92;;;;;;;19.37;63.74;99942.64;2236343;78;30362;-71
2021/07/05 22:17:36;;;;;;;9.73;8.70;;;;;;;19.39;63.66;99940.16;2235477;79;27673;-74
2021/07/05 22:20:39;;;;;;;9.83;8.65;;;;;;;19.40;63.66;99943.72;2234955;79;29877;-58
2021/07/05 22:23:41;;;;;;;10.80;8.60;;;;;;;19.41;63.74;99943.59;2237488;78;31025;-58
2021/07/05 22:26:43;;;;;;;10.03;9.03;;;;;;;19.40;63.69;99942.36;2234816;79;33842;-72
2021/07/05 22:29:47;;;;;;;12.95;9.35;;;;;;;19.37;63.79;99942.64;2234873;79;29884;-68
2021/07/05 22:32:49;;;;;;;10.58;9.40;;;;;;;19.32;63.78;99947.14;2237490;78;27813;-69
2021/07/05 22:35:51;;;;;;;12.63;9.28;;;;;;;19.23;63.68;99947.49;2234817;79;28701;-74
2021/07/05 22:38:52;;;;;;;14.95;9.35;;;;;;;19.19;63.75;99952.00;2235347;79;31454;-70
2021/07/05 22:41:55;;;;;;;11.75;9.43;;;;;;;19.11;63.63;99949.98;2235184;78;34142;-67